KTTF

Details ICAO KTTF
Name CUSTER
Region United States
Timezone America/Detroit (UTC-5.0)
Plans Departing 0
Arriving 3
Stats Elevation 616 ft / 188 m (AMSL)
Location 41.939903° -83.434674°
Runways 1
Magnetic Variation 7.180° W
Sunrise 2017-12-17 12:57:27 UTC / 2017-12-17 07:57:27 Local
Sunset 2017-12-17 22:05:14 UTC / 2017-12-17 17:05:14 Local
Advertisement - Login to hide

Runways

ID Width Length Bearing (true) Bearing (mag) Surface Threshold Offset Overrun Length
03 100 ft / 30 m 5,000 ft / 1,524 m 22.42° 29.60° Asphalt 0 ft / 0 m 499 ft / 152 m
21 100 ft / 30 m 5,000 ft / 1,524 m 202.42° 209.60° Asphalt 0 ft / 0 m 0 ft / 0 m

Map

Weather


0- 5 10 15 20 25 30 35+ Temperature / ° C

Clouds and Precipitation
Forecast for 2017-12-18 00:00 UTC. Updated 23 minutes ago

Ground ~20,000 ft ~40,000 ft Winds

METAR

KTTF 172335Z AUTO 00000KT 4SM BR OVC120 00/M01 A3006 RMK AO2 T10031015

TAF

Not found

Frequencies

Recorded 119.07 MHz AWOS 3
Approach 134.30 MHz DETROIT APP/DEP
Unicom 122.70 MHz CTAF/UNICOM
Warning: Do not use this data for real-world aviation or navigation. No guarantee of current accuracy is given.